Time;durP1;ratioP1;P1;durP2;ratioP2;P2;SDS_P1;SDS_P2;PMS_P1;PMS_P2;Temp;Humidity;BMP_temperature;BMP_pressure;BME280_temperature;BME280_humidity;BME280_pressure;Samples;Min_cycle;Max_cycle;Signal;HPM_P1;HPM_P2
2021/11/30 00:02:03;;;;;;;74.70;22.38;;;;;;;4.18;99.15;95388.13;5044987;28;20045;-65
2021/11/30 00:04:30;;;;;;;40.22;13.90;;;;;;;4.64;100.00;95454.56;5044385;28;20488;-65
2021/11/30 00:07:01;;;;;;;21.75;7.50;;;;;;;4.69;100.00;95457.75;5043947;28;20049;-65
2021/11/30 00:12:20;;;;;;;10.60;5.10;;;;;;;4.81;99.81;95477.88;5045587;28;20134;-65
2021/11/30 00:14:49;;;;;;;8.85;4.10;;;;;;;4.76;99.15;95472.75;5045506;28;20060;-65
2021/11/30 00:17:17;;;;;;;6.70;2.83;;;;;;;4.79;98.44;95461.03;5043227;28;20045;-65
2021/11/30 00:19:45;;;;;;;9.93;3.28;;;;;;;4.91;97.51;95452.56;5044007;28;20512;-64
2021/11/30 00:22:15;;;;;;;5.97;2.13;;;;;;;4.61;98.33;95464.31;5043468;28;20045;-64
2021/11/30 00:24:42;;;;;;;3.60;1.55;;;;;;;4.46;99.33;95388.50;5045302;28;20059;-64
2021/11/30 00:27:12;;;;;;;21.73;8.57;;;;;;;4.99;99.62;95462.44;5045024;28;21001;-64
2021/11/30 00:29:39;;;;;;;17.25;6.13;;;;;;;4.76;99.71;95432.38;5045166;28;20209;-64
2021/11/30 00:32:07;;;;;;;15.98;5.45;;;;;;;5.10;98.84;95466.13;5045137;28;20081;-65
2021/11/30 00:34:33;;;;;;;9.48;4.13;;;;;;;5.08;96.66;95462.94;5045006;28;20059;-63
2021/11/30 00:37:01;;;;;;;9.00;4.72;;;;;;;4.39;96.80;95382.16;5044544;28;20056;-64
2021/11/30 00:39:28;;;;;;;11.98;5.32;;;;;;;4.65;96.54;95435.00;5044966;28;20060;-64
2021/11/30 00:41:56;;;;;;;15.00;7.07;;;;;;;4.99;96.67;95481.66;5044707;28;20041;-64
2021/11/30 00:44:26;;;;;;;14.55;6.63;;;;;;;5.06;96.15;95476.28;5044663;28;20056;-64
2021/11/30 00:46:55;;;;;;;14.20;6.50;;;;;;;3.90;95.67;95300.09;5044805;28;20049;-65
2021/11/30 00:49:25;;;;;;;14.32;6.40;;;;;;;4.93;97.02;95469.44;5044908;28;20435;-65
2021/11/30 00:51:54;;;;;;;13.38;6.85;;;;;;;4.88;98.17;95464.28;5044251;28;20045;-64
2021/11/30 00:54:22;;;;;;;11.38;6.00;;;;;;;5.00;98.12;95466.75;5044514;28;20146;-64
2021/11/30 00:56:50;;;;;;;14.38;7.10;;;;;;;5.11;96.94;95459.47;5042968;28;20052;-64
2021/11/30 00:59:17;;;;;;;17.67;9.00;;;;;;;4.83;96.50;95401.50;5043112;28;20115;-64
2021/11/30 01:01:45;;;;;;;19.63;8.65;;;;;;;5.18;97.74;95451.31;5044289;28;20040;-64
2021/11/30 01:04:13;;;;;;;19.35;7.72;;;;;;;5.25;97.72;95448.66;5044458;28;20084;-64
2021/11/30 01:06:40;;;;;;;11.20;4.47;;;;;;;5.11;98.07;95434.75;5042803;28;20484;-64
2021/11/30 01:09:08;;;;;;;9.57;3.35;;;;;;;5.17;97.51;95436.03;5044529;28;20049;-64
2021/11/30 01:11:35;;;;;;;5.55;2.85;;;;;;;4.49;96.43;95315.69;5044322;28;20052;-64
2021/11/30 01:14:02;;;;;;;8.85;3.85;;;;;;;5.24;97.27;95430.59;5043961;28;20056;-65
2021/11/30 01:16:29;;;;;;;9.00;4.05;;;;;;;5.04;98.74;95426.47;5043097;28;20051;-66
2021/11/30 01:18:56;;;;;;;14.27;6.00;;;;;;;4.91;99.88;95411.41;5044450;28;20091;-65
2021/11/30 01:21:23;;;;;;;11.57;4.43;;;;;;;4.82;97.67;95369.78;5042736;28;20057;-66
2021/11/30 01:23:50;;;;;;;10.15;4.80;;;;;;;5.10;98.51;95422.22;5044083;28;20539;-65
2021/11/30 01:26:17;;;;;;;10.05;4.78;;;;;;;5.05;100.00;95417.84;5043156;28;20045;-65
2021/11/30 01:28:44;;;;;;;7.47;3.22;;;;;;;5.10;100.00;95403.81;5044751;28;20427;-65
2021/11/30 01:31:11;;;;;;;9.73;3.33;;;;;;;5.10;99.31;95390.09;5044976;28;20048;-65
2021/11/30 01:33:37;;;;;;;9.50;4.00;;;;;;;5.16;100.00;95415.22;5045079;28;20089;-64
2021/11/30 01:36:05;;;;;;;9.98;4.72;;;;;;;5.16;100.00;95409.72;5044457;28;20059;-65
2021/11/30 01:38:32;;;;;;;7.25;3.35;;;;;;;3.51;100.00;95144.69;5044341;28;20056;-64
2021/11/30 01:41:02;;;;;;;8.48;3.90;;;;;;;4.94;100.00;95364.03;5043844;28;20053;-65
2021/11/30 01:43:39;;;;;;;11.75;4.25;;;;;;;5.17;100.00;95405.84;5044159;28;20044;-64
2021/11/30 01:51:21;;;;;;;10.80;5.03;;;;;;;5.06;100.00;95350.06;5043807;28;20041;-65
2021/11/30 01:53:49;;;;;;;16.40;7.53;;;;;;;5.32;100.00;95366.38;5042678;28;20174;-65
2021/11/30 01:56:16;;;;;;;19.73;8.35;;;;;;;5.13;100.00;95328.16;5043733;28;20136;-65
2021/11/30 01:58:44;;;;;;;12.25;6.20;;;;;;;5.43;100.00;95378.25;5043666;28;20832;-65
2021/11/30 02:01:11;;;;;;;14.82;6.63;;;;;;;5.06;100.00;95366.53;5043818;28;20053;-65
2021/11/30 02:03:39;;;;;;;12.98;6.28;;;;;;;4.60;100.00;95327.59;5044275;28;20060;-66
2021/11/30 02:06:06;;;;;;;19.00;7.35;;;;;;;5.07;100.00;95368.09;5044060;28;20055;-66
2021/11/30 02:08:33;;;;;;;14.48;7.13;;;;;;;4.75;100.00;95309.34;5042470;28;20068;-67
2021/11/30 02:11:00;;;;;;;16.17;7.60;;;;;;;4.22;100.00;95232.78;5043843;28;20053;-66
2021/11/30 02:13:27;;;;;;;17.50;7.75;;;;;;;5.30;100.00;95341.25;5044064;28;20052;-65
2021/11/30 02:15:55;;;;;;;12.88;5.82;;;;;;;5.00;100.00;95330.38;5042287;28;20140;-66
2021/11/30 02:18:23;;;;;;;13.20;7.10;;;;;;;5.00;100.00;95332.34;5042555;28;20059;-66
2021/11/30 02:20:58;;;;;;;15.75;5.47;;;;;;;5.04;100.00;95324.94;5044078;28;20059;-66
2021/11/30 02:23:34;;;;;;;12.77;5.78;;;;;;;4.48;100.00;95216.25;5042473;28;20080;-65
2021/11/30 02:26:10;;;;;;;9.30;4.80;;;;;;;5.19;100.00;95310.19;5046474;28;20535;-66
2021/11/30 02:28:40;;;;;;;12.60;5.90;;;;;;;5.11;100.00;95298.38;5047695;28;20049;-66
2021/11/30 02:31:09;;;;;;;8.77;5.00;;;;;;;5.26;100.00;95311.06;5047127;28;20052;-66
2021/11/30 02:33:37;;;;;;;10.55;5.07;;;;;;;4.74;100.00;95239.22;5045919;28;20504;-66
2021/11/30 02:36:26;;;;;;;10.40;4.72;;;;;;;5.15;100.00;95303.88;5047214;28;20056;-66
2021/11/30 02:38:54;;;;;;;8.35;5.25;;;;;;;5.23;100.00;95311.03;5047176;28;20059;-66
2021/11/30 02:41:21;;;;;;;14.20;6.18;;;;;;;5.34;100.00;95273.47;5047003;28;20076;-65
2021/11/30 02:43:48;;;;;;;11.45;5.15;;;;;;;5.16;100.00;95272.53;5045596;28;20049;-66
2021/11/30 02:46:44;;;;;;;10.40;5.05;;;;;;;4.95;100.00;95255.91;5046970;28;20492;-66
2021/11/30 02:49:21;;;;;;;9.52;5.30;;;;;;;4.41;100.00;95166.84;5047074;28;20058;-66
2021/11/30 02:51:53;;;;;;;10.90;5.72;;;;;;;5.07;100.00;95236.41;5046896;28;20064;-66
2021/11/30 02:54:23;;;;;;;8.70;5.07;;;;;;;4.84;100.00;95211.13;5045689;28;20056;-66
2021/11/30 02:56:56;;;;;;;9.95;5.47;;;;;;;5.18;100.00;95257.28;5045684;28;20446;-66
2021/11/30 02:59:25;;;;;;;13.57;8.00;;;;;;;5.35;100.00;95239.34;5047667;28;20048;-66
2021/11/30 03:01:55;;;;;;;14.23;6.68;;;;;;;5.29;100.00;95240.88;5047169;28;20087;-66
2021/11/30 03:04:24;;;;;;;15.63;6.88;;;;;;;5.31;100.00;95233.06;5046683;28;20053;-66
2021/11/30 03:06:52;;;;;;;16.20;7.95;;;;;;;5.18;100.00;95226.28;5045204;28;20076;-66
2021/11/30 03:09:19;;;;;;;22.85;9.20;;;;;;;5.23;100.00;95229.47;5045183;28;20435;-66
2021/11/30 03:11:46;;;;;;;13.90;6.68;;;;;;;5.24;100.00;95224.78;5046563;28;20053;-66
2021/11/30 03:14:13;;;;;;;14.77;6.30;;;;;;;4.38;100.00;95079.91;4695506;28;10001259;-66
2021/11/30 03:16:40;;;;;;;22.35;8.80;;;;;;;5.22;100.00;95205.16;5035147;28;20052;-66
2021/11/30 03:19:08;;;;;;;36.58;11.63;;;;;;;4.87;100.00;95150.03;5046641;28;20045;-65
2021/11/30 03:21:35;;;;;;;27.65;11.65;;;;;;;5.09;100.00;95166.25;5045947;28;20049;-66
2021/11/30 03:24:02;;;;;;;15.77;7.47;;;;;;;5.40;100.00;95195.09;5046466;28;20080;-66
2021/11/30 03:26:29;;;;;;;13.73;6.18;;;;;;;5.14;100.00;95152.19;5044602;28;20053;-66
2021/11/30 03:28:56;;;;;;;12.93;5.78;;;;;;;5.49;100.00;95179.06;5046504;28;20044;-66
2021/11/30 03:34:08;;;;;;;15.68;7.30;;;;;;;5.48;100.00;95163.78;5026061;28;20539;-66
2021/11/30 03:36:37;;;;;;;17.08;6.60;;;;;;;5.46;100.00;95149.63;5045413;28;20055;-65
2021/11/30 03:39:07;;;;;;;14.60;7.78;;;;;;;5.55;100.00;95147.31;5046501;28;20269;-65
2021/11/30 03:41:34;;;;;;;20.55;7.70;;;;;;;5.47;100.00;95123.78;5045587;28;20055;-65
2021/11/30 03:44:03;;;;;;;31.13;10.88;;;;;;;5.62;100.00;95148.16;5045867;28;20061;-65
2021/11/30 03:46:31;;;;;;;22.95;8.77;;;;;;;5.65;100.00;95149.34;5046060;28;20056;-65
2021/11/30 03:48:59;;;;;;;16.98;8.13;;;;;;;5.70;100.00;95148.97;5046352;28;20060;-66
2021/11/30 03:51:26;;;;;;;23.23;10.15;;;;;;;5.54;100.00;95126.53;5045684;28;20056;-66
2021/11/30 03:53:53;;;;;;;18.15;8.13;;;;;;;5.69;100.00;95152.91;5045884;28;20065;-66
2021/11/30 03:56:20;;;;;;;13.52;5.70;;;;;;;5.38;100.00;95076.66;5045811;28;20447;-66
2021/11/30 03:58:46;;;;;;;9.65;4.75;;;;;;;5.25;100.00;95062.47;5045324;28;20053;-66
2021/11/30 04:01:13;;;;;;;5.95;3.75;;;;;;;5.36;100.00;95096.25;5045438;28;20051;-65
2021/11/30 04:03:41;;;;;;;8.00;4.50;;;;;;;5.61;100.00;95118.34;5044345;28;20080;-66
2021/11/30 04:06:09;;;;;;;8.07;3.42;;;;;;;5.62;100.00;95119.91;5045094;28;20519;-65
2021/11/30 04:08:38;;;;;;;6.93;4.05;;;;;;;5.11;100.00;95017.69;5044121;28;20388;-66
2021/11/30 04:11:06;;;;;;;8.50;4.50;;;;;;;5.48;100.00;95089.66;5043930;28;20049;-65
2021/11/30 04:13:34;;;;;;;5.72;3.03;;;;;;;5.12;100.00;95107.84;5043925;28;20492;-64
2021/11/30 04:16:00;;;;;;;9.55;3.83;;;;;;;5.18;100.00;95089.09;5045203;28;20057;-65
2021/11/30 04:18:28;;;;;;;11.60;3.88;;;;;;;5.09;100.00;95069.44;5043985;28;20053;-65
2021/11/30 04:20:55;;;;;;;10.90;5.70;;;;;;;5.27;100.00;95087.59;5043533;28;20045;-65
2021/11/30 04:23:24;;;;;;;4.72;1.88;;;;;;;5.14;100.00;95088.31;5045385;28;20504;-65
2021/11/30 04:25:51;;;;;;;1.58;0.60;;;;;;;5.04;99.68;95089.00;5043368;28;20079;-65
2021/11/30 04:28:18;;;;;;;2.45;1.20;;;;;;;5.06;100.00;95103.13;5045207;28;20492;-65
2021/11/30 04:30:44;;;;;;;6.95;1.48;;;;;;;4.56;100.00;95053.44;5043437;28;20103;-64
2021/11/30 04:33:11;;;;;;;7.47;1.60;;;;;;;4.87;99.04;95101.41;5045411;28;20065;-65
2021/11/30 04:35:38;;;;;;;2.17;0.88;;;;;;;4.72;100.00;95049.59;5045002;28;20522;-65
2021/11/30 04:38:05;;;;;;;2.65;0.90;;;;;;;4.96;99.00;95104.66;5045131;28;20147;-65
2021/11/30 04:40:32;;;;;;;2.50;0.73;;;;;;;4.99;90.83;95097.59;5044877;28;20056;-64
2021/11/30 04:42:58;;;;;;;2.17;0.52;;;;;;;5.00;91.78;95108.19;5044877;28;20059;-64
2021/11/30 04:45:29;;;;;;;1.35;0.70;;;;;;;4.94;89.81;95122.63;5044687;28;20056;-63
2021/11/30 04:47:56;;;;;;;1.23;0.60;;;;;;;4.84;85.89;95112.38;5042589;28;20060;-65
2021/11/30 04:50:27;;;;;;;5.05;1.10;;;;;;;4.88;87.34;95110.44;5044812;28;20049;-64
2021/11/30 04:52:56;;;;;;;3.30;0.73;;;;;;;4.66;89.40;95096.56;5044552;28;20525;-64
2021/11/30 04:55:30;;;;;;;2.38;1.00;;;;;;;4.33;95.44;95043.84;5044883;28;20048;-63
2021/11/30 04:57:59;;;;;;;2.42;1.25;;;;;;;4.65;96.35;95100.50;5042916;28;20065;-64
2021/11/30 05:00:27;;;;;;;2.30;1.35;;;;;;;4.63;100.00;95094.59;5044783;28;20065;-64
2021/11/30 05:02:54;;;;;;;4.97;1.65;;;;;;;4.76;100.00;95102.53;5044589;28;20053;-64
2021/11/30 05:05:21;;;;;;;8.73;3.40;;;;;;;4.72;100.00;95096.22;5044596;28;20057;-65
2021/11/30 05:07:48;;;;;;;6.47;2.35;;;;;;;3.18;100.00;94863.69;5043246;28;20067;-65
2021/11/30 05:10:18;;;;;;;4.97;2.55;;;;;;;4.60;100.00;95084.38;5042918;28;20534;-64
2021/11/30 05:12:46;;;;;;;8.48;3.83;;;;;;;5.00;100.00;95170.47;5044758;28;20049;-64
2021/11/30 05:15:15;;;;;;;4.57;2.00;;;;;;;4.73;100.00;95147.16;5043638;28;20056;-65
2021/11/30 05:17:42;;;;;;;4.28;1.77;;;;;;;4.89;100.00;95180.56;5044799;28;20072;-65
2021/11/30 05:20:10;;;;;;;4.32;1.55;;;;;;;4.91;100.00;95189.22;5044699;28;20061;-65
2021/11/30 05:22:37;;;;;;;1.35;0.80;;;;;;;4.84;100.00;95183.69;5044240;28;20075;-64
2021/11/30 05:25:21;;;;;;;1.02;0.70;;;;;;;4.84;100.00;95208.38;5044418;28;20064;-66
2021/11/30 05:27:49;;;;;;;2.63;1.25;;;;;;;4.88;100.00;95200.97;5044332;28;20578;-65
2021/11/30 05:30:19;;;;;;;4.35;1.30;;;;;;;5.01;100.00;95199.50;5044540;28;20049;-65
2021/11/30 05:32:48;;;;;;;4.35;1.88;;;;;;;4.85;100.00;95152.34;5044374;28;20051;-65
2021/11/30 05:35:16;;;;;;;2.67;1.20;;;;;;;4.92;100.00;95202.56;5044228;28;20118;-65
2021/11/30 05:37:43;;;;;;;6.15;3.35;;;;;;;5.01;100.00;95211.25;5037172;28;20106;-64
2021/11/30 05:40:10;;;;;;;6.80;2.33;;;;;;;4.74;100.00;95162.44;5038464;28;20053;-65
2021/11/30 05:42:37;;;;;;;4.18;2.42;;;;;;;4.86;100.00;95182.13;5024387;28;20049;-65
2021/11/30 05:45:05;;;;;;;3.08;0.93;;;;;;;4.95;100.00;95201.03;5024231;28;20065;-64
2021/11/30 05:47:32;;;;;;;2.38;1.60;;;;;;;5.03;100.00;95205.38;5024153;28;20687;-65
2021/11/30 05:49:58;;;;;;;7.65;1.30;;;;;;;4.99;100.00;95208.13;5024841;28;20057;-64
2021/11/30 05:52:25;;;;;;;9.82;3.00;;;;;;;4.92;100.00;95221.75;5024000;28;20049;-64
2021/11/30 05:54:53;;;;;;;18.60;4.70;;;;;;;4.90;100.00;95226.06;4679373;28;10000624;-65
2021/11/30 05:57:22;;;;;;;22.55;7.22;;;;;;;4.90;100.00;95237.03;5021962;28;20552;-64
2021/11/30 05:59:50;;;;;;;18.48;5.05;;;;;;;4.88;100.00;95236.63;5025022;28;20079;-64
2021/11/30 06:02:22;;;;;;;17.00;5.05;;;;;;;4.82;100.00;95251.84;5027718;28;20055;-65
2021/11/30 06:04:49;;;;;;;27.83;8.60;;;;;;;4.82;100.00;95251.84;5027939;28;20057;-64
2021/11/30 06:07:16;;;;;;;16.25;5.30;;;;;;;4.12;100.00;95214.28;5027583;28;20057;-66
2021/11/30 06:09:43;;;;;;;7.65;1.77;;;;;;;4.49;99.73;95267.16;5026297;28;20069;-65
2021/11/30 06:12:11;;;;;;;4.30;1.63;;;;;;;3.85;100.00;95198.28;5042528;28;20525;-64
2021/11/30 06:14:38;;;;;;;10.65;3.63;;;;;;;4.29;100.00;95273.97;5027876;28;20057;-65
2021/11/30 06:17:06;;;;;;;8.48;2.65;;;;;;;3.69;100.00;95234.06;5027580;28;20187;-65
2021/11/30 06:19:35;;;;;;;6.13;1.98;;;;;;;3.73;100.00;95278.69;5027670;28;20413;-64
2021/11/30 06:22:02;;;;;;;5.10;1.95;;;;;;;3.66;100.00;95283.28;5025499;28;20057;-66
2021/11/30 06:24:29;;;;;;;5.63;2.45;;;;;;;3.12;100.00;95242.59;5027560;28;20505;-65
2021/11/30 06:26:55;;;;;;;7.00;2.40;;;;;;;2.86;100.00;95202.31;5042397;28;20057;-65
2021/11/30 06:29:22;;;;;;;7.40;3.10;;;;;;;3.46;100.00;95295.50;5027682;28;20050;-65
2021/11/30 06:31:50;;;;;;;16.55;6.43;;;;;;;3.21;100.00;95262.25;5027446;28;20152;-64
2021/11/30 06:34:17;;;;;;;9.82;5.72;;;;;;;3.40;100.00;95273.13;5027381;28;20061;-65
2021/11/30 06:36:44;;;;;;;8.80;3.50;;;;;;;3.66;100.00;95327.88;5027199;28;20067;-64
2021/11/30 06:39:11;;;;;;;10.80;3.75;;;;;;;3.61;100.00;95309.03;5027246;28;20057;-65
2021/11/30 06:41:38;;;;;;;20.85;7.65;;;;;;;3.72;100.00;95326.41;5026931;28;20057;-65
2021/11/30 06:44:05;;;;;;;10.57;5.85;;;;;;;3.42;100.00;95267.28;5025614;28;20049;-64
2021/11/30 06:46:32;;;;;;;9.73;3.67;;;;;;;3.45;100.00;95278.28;5025426;28;20057;-65
2021/11/30 06:48:59;;;;;;;9.75;4.05;;;;;;;3.79;100.00;95345.69;5025329;28;20061;-65
2021/11/30 06:51:26;;;;;;;11.95;4.78;;;;;;;3.91;100.00;95350.16;5033810;28;20053;-65
2021/11/30 06:53:52;;;;;;;8.13;3.45;;;;;;;4.01;100.00;95358.53;5046784;28;20104;-65
2021/11/30 06:56:19;;;;;;;10.32;4.88;;;;;;;3.76;100.00;95319.03;5025116;28;20075;-65
2021/11/30 06:58:46;;;;;;;17.67;6.32;;;;;;;4.04;100.00;95346.84;5038957;28;20053;-65
2021/11/30 07:01:13;;;;;;;15.77;6.68;;;;;;;4.23;100.00;95374.13;5046220;28;20071;-63
2021/11/30 07:03:44;;;;;;;24.52;8.50;;;;;;;3.98;100.00;95311.91;5030833;28;20053;-64
2021/11/30 07:08:51;;;;;;;3.92;1.90;;;;;;;4.43;100.00;95389.25;5037086;28;20069;-64
2021/11/30 07:12:03;;;;;;;2.28;1.00;;;;;;;4.21;100.00;95354.50;5042285;28;20068;-64
2021/11/30 07:14:08;;;;;;;3.47;1.75;;;;;;;4.23;100.00;95374.13;5031284;28;20172;-64
2021/11/30 07:16:35;;;;;;;4.72;2.45;;;;;;;4.15;100.00;95366.94;5028790;28;20049;-64
2021/11/30 07:19:04;;;;;;;9.75;3.67;;;;;;;4.32;100.00;95382.84;5042680;28;20063;-61
2021/11/30 07:21:31;;;;;;;7.28;3.20;;;;;;;3.35;100.00;95267.94;5038139;28;20049;-62
2021/11/30 07:23:58;;;;;;;6.43;2.53;;;;;;;3.68;100.00;95309.16;5039941;28;20064;-62
2021/11/30 07:26:26;;;;;;;5.57;2.55;;;;;;;4.22;100.00;95394.44;5030487;28;20091;-65
2021/11/30 07:28:53;;;;;;;2.72;1.30;;;;;;;4.18;100.00;95393.59;5042606;28;20053;-68
2021/11/30 07:31:20;;;;;;;2.42;0.90;;;;;;;3.85;100.00;95346.94;5036507;28;20124;-61
2021/11/30 07:33:48;;;;;;;5.63;2.40;;;;;;;3.32;100.00;95238.59;4689431;28;10000838;-65
2021/11/30 07:36:17;;;;;;;9.60;3.47;;;;;;;4.04;100.00;95354.25;5043124;28;20595;-64
2021/11/30 07:38:47;;;;;;;6.60;2.20;;;;;;;4.31;100.00;95397.72;5030795;28;20056;-61
2021/11/30 07:41:15;;;;;;;7.78;2.40;;;;;;;4.04;100.00;95338.63;5040185;28;20129;-64
2021/11/30 07:43:42;;;;;;;3.30;1.52;;;;;;;4.25;100.00;95360.81;5038373;28;20516;-63
2021/11/30 07:46:09;;;;;;;3.03;1.13;;;;;;;4.41;100.00;95369.66;5031638;28;20054;-63
2021/11/30 07:48:36;;;;;;;2.08;0.95;;;;;;;4.65;100.00;95415.78;5039993;28;20462;-64
2021/11/30 07:51:05;;;;;;;4.88;2.03;;;;;;;4.18;100.00;95371.69;5047830;28;20063;-62
2021/11/30 07:53:32;;;;;;;4.68;1.75;;;;;;;4.43;100.00;95383.78;5030435;28;20053;-62
2021/11/30 07:55:59;;;;;;;4.65;1.60;;;;;;;4.17;99.86;95370.09;5039145;28;20053;-61
2021/11/30 07:58:27;;;;;;;1.98;0.85;;;;;;;4.54;99.35;95423.09;5038471;28;20057;-60
2021/11/30 08:00:55;;;;;;;2.28;1.33;;;;;;;4.48;100.00;95432.81;5029430;28;20065;-64
2021/11/30 08:03:22;;;;;;;4.47;1.60;;;;;;;4.06;100.00;95396.53;5034269;28;20046;-63
2021/11/30 08:05:49;;;;;;;4.70;1.80;;;;;;;4.62;100.00;95463.16;5038802;28;20715;-62
2021/11/30 08:08:16;;;;;;;1.98;1.10;;;;;;;4.66;98.28;95455.75;5037536;28;20051;-62
2021/11/30 08:10:43;;;;;;;4.47;2.05;;;;;;;3.67;98.07;95340.41;5030531;28;20053;-63
2021/11/30 08:13:10;;;;;;;4.70;2.17;;;;;;;4.50;99.68;95427.72;5032467;28;20049;-64
2021/11/30 08:15:37;;;;;;;3.83;1.50;;;;;;;3.24;97.18;95272.47;5042497;28;20059;-64
2021/11/30 08:18:05;;;;;;;3.60;1.50;;;;;;;4.83;96.31;95475.56;5035971;28;20515;-65
2021/11/30 08:20:33;;;;;;;8.35;4.28;;;;;;;4.93;97.72;95431.84;5034929;28;20147;-62
2021/11/30 08:23:00;;;;;;;7.32;3.05;;;;;;;5.34;91.49;95454.66;5033651;28;20090;-64
2021/11/30 08:25:27;;;;;;;5.80;2.05;;;;;;;5.00;88.32;95400.91;5040246;28;20480;-65
2021/11/30 08:27:56;;;;;;;8.18;2.80;;;;;;;5.43;90.52;95438.66;5044147;28;20049;-67
2021/11/30 08:30:42;;;;;;;5.82;2.42;;;;;;;5.85;86.03;95496.78;5043527;28;20060;-65
2021/11/30 08:33:09;;;;;;;1.75;0.82;;;;;;;5.39;87.07;95440.59;5036311;28;20060;-63
2021/11/30 08:35:36;;;;;;;2.10;1.35;;;;;;;5.98;85.84;95534.63;5033769;28;20037;-65
2021/11/30 08:38:04;;;;;;;2.60;0.80;;;;;;;5.91;85.75;95529.03;5033674;28;20148;-64
2021/11/30 08:40:31;;;;;;;1.67;0.82;;;;;;;6.09;86.34;95521.78;5036635;28;20048;-65
2021/11/30 08:42:58;;;;;;;3.25;1.05;;;;;;;6.13;85.69;95541.03;5029103;28;20138;-65
2021/11/30 08:45:26;;;;;;;9.70;2.95;;;;;;;5.09;84.76;95383.00;5024541;28;20442;-63
2021/11/30 08:47:53;;;;;;;6.88;2.65;;;;;;;5.75;86.41;95555.13;5032063;28;20140;-69
2021/11/30 08:50:20;;;;;;;3.78;1.90;;;;;;;5.45;83.98;95499.47;5039737;28;20522;-64
2021/11/30 08:52:47;;;;;;;4.75;1.52;;;;;;;5.28;84.33;95500.06;5037305;28;20049;-65
2021/11/30 08:55:16;;;;;;;5.80;2.20;;;;;;;5.19;78.21;95477.59;5026267;28;20526;-70
2021/11/30 08:57:43;;;;;;;4.88;2.40;;;;;;;4.75;71.56;95428.06;5032464;28;20522;-67
2021/11/30 09:00:15;;;;;;;9.90;3.30;;;;;;;5.90;68.96;95560.44;5031901;28;20675;-66
2021/11/30 09:02:43;;;;;;;3.70;1.10;;;;;;;5.75;66.38;95590.84;5044751;28;20061;-64
2021/11/30 09:05:10;;;;;;;1.83;0.85;;;;;;;5.40;65.64;95560.22;5043316;28;20052;-65
2021/11/30 09:07:37;;;;;;;7.30;2.25;;;;;;;5.67;68.59;95591.94;4718110;28;10000919;-65
2021/11/30 09:10:07;;;;;;;8.85;2.58;;;;;;;5.80;68.30;95593.28;5081038;28;20044;-65
2021/11/30 09:12:35;;;;;;;5.43;1.85;;;;;;;5.10;65.90;95515.50;5081567;28;20094;-65
2021/11/30 09:15:03;;;;;;;3.95;2.03;;;;;;;5.72;68.45;95610.84;5081537;28;20147;-64
2021/11/30 09:17:49;;;;;;;1.50;0.82;;;;;;;5.69;67.95;95606.09;5081531;28;20098;-65
2021/11/30 09:20:16;;;;;;;1.02;0.70;;;;;;;5.68;66.04;95607.22;5080964;28;20058;-65
2021/11/30 09:22:43;;;;;;;0.90;0.63;;;;;;;5.48;66.32;95586.59;5081204;28;20075;-65
2021/11/30 09:25:10;;;;;;;0.75;0.50;;;;;;;5.44;65.06;95570.06;5063881;28;20051;-65
2021/11/30 09:27:37;;;;;;;0.98;0.70;;;;;;;5.68;64.06;95618.22;5080790;28;20056;-66
2021/11/30 09:30:07;;;;;;;0.88;0.77;;;;;;;5.65;68.78;95607.97;5080850;28;20052;-65
2021/11/30 09:32:34;;;;;;;0.77;0.60;;;;;;;5.50;67.74;95581.53;5080884;28;20059;-65
2021/11/30 09:35:06;;;;;;;1.10;0.70;;;;;;;5.50;71.51;95628.19;5083407;28;20055;-65
2021/11/30 09:37:37;;;;;;;1.42;0.70;;;;;;;5.73;64.51;95629.69;5084949;28;20869;-65
2021/11/30 09:40:10;;;;;;;1.27;0.98;;;;;;;5.67;63.41;95617.44;5084468;28;20641;-65
2021/11/30 09:42:37;;;;;;;1.90;0.90;;;;;;;5.98;63.60;95636.28;5085343;28;20486;-64
2021/11/30 09:45:05;;;;;;;7.18;1.95;;;;;;;6.22;62.51;95648.72;5084494;28;20052;-65
2021/11/30 09:47:34;;;;;;;3.28;1.40;;;;;;;5.84;62.07;95552.91;5067677;28;20467;-65
2021/11/30 09:50:01;;;;;;;2.92;1.20;;;;;;;6.27;60.22;95596.16;5084553;28;20059;-65
2021/11/30 09:52:28;;;;;;;4.45;2.45;;;;;;;6.58;62.84;95612.16;5081191;28;20049;-66
2021/11/30 09:54:55;;;;;;;2.83;1.20;;;;;;;6.80;59.64;95646.16;5064553;28;20052;-64
2021/11/30 09:57:22;;;;;;;2.75;1.40;;;;;;;6.94;60.70;95652.56;5047938;28;20569;-66
2021/11/30 09:59:49;;;;;;;8.93;4.15;;;;;;;7.06;64.79;95649.53;5063946;28;20049;-65
2021/11/30 10:02:17;;;;;;;8.85;3.45;;;;;;;6.76;65.40;95621.38;5064456;28;20062;-65
2021/11/30 10:04:44;;;;;;;3.42;1.40;;;;;;;7.35;64.00;95645.78;5064301;28;20060;-65
2021/11/30 10:07:11;;;;;;;3.35;1.75;;;;;;;7.43;64.26;95658.44;5063100;28;20142;-66
2021/11/30 10:09:38;;;;;;;1.60;1.10;;;;;;;7.26;60.42;95661.88;5064745;28;20076;-66
2021/11/30 10:12:09;;;;;;;4.65;1.85;;;;;;;7.16;62.21;95618.53;5057217;28;20075;-65
2021/11/30 10:14:39;;;;;;;4.40;1.00;;;;;;;4.87;58.21;95276.19;5046109;28;20053;-65
2021/11/30 10:17:26;;;;;;;6.13;2.45;;;;;;;7.29;58.37;95674.88;5047037;28;20060;-65
2021/11/30 10:19:57;;;;;;;7.22;2.15;;;;;;;7.16;57.97;95679.09;5047626;28;20587;-64
2021/11/30 10:22:48;;;;;;;5.90;2.17;;;;;;;7.31;58.69;95672.53;5046975;28;20048;-64
2021/11/30 10:25:25;;;;;;;6.75;2.35;;;;;;;7.36;58.95;95674.94;5047353;28;20057;-65
2021/11/30 10:27:58;;;;;;;6.05;3.00;;;;;;;6.81;59.77;95620.22;5045044;28;20053;-64
2021/11/30 10:30:34;;;;;;;8.20;4.20;;;;;;;6.54;58.93;95567.34;5046976;28;20065;-66
2021/11/30 10:33:07;;;;;;;7.25;2.97;;;;;;;7.21;59.86;95684.25;5047185;28;20518;-64
2021/11/30 10:35:34;;;;;;;8.55;2.78;;;;;;;6.83;58.69;95615.91;5046881;28;20068;-64
2021/11/30 10:38:04;;;;;;;8.82;3.80;;;;;;;7.24;59.75;95700.00;5045074;28;20061;-64
2021/11/30 10:40:35;;;;;;;11.52;3.83;;;;;;;7.25;61.71;95712.63;5046887;28;20045;-65
2021/11/30 10:43:05;;;;;;;5.07;2.40;;;;;;;7.45;63.05;95711.19;5046768;28;20152;-66
2021/11/30 10:45:38;;;;;;;4.68;2.40;;;;;;;6.83;59.49;95615.13;5044184;28;20053;-64
2021/11/30 10:48:09;;;;;;;3.30;1.55;;;;;;;7.44;59.00;95726.16;5046122;28;20092;-65
2021/11/30 10:50:44;;;;;;;8.15;2.20;;;;;;;7.51;58.61;95742.72;5046428;28;20454;-65
2021/11/30 10:53:18;;;;;;;11.00;3.90;;;;;;;7.45;59.17;95744.25;5046198;28;20045;-67
2021/11/30 10:55:47;;;;;;;4.07;1.58;;;;;;;7.31;58.23;95730.38;5046689;28;20053;-66
2021/11/30 10:58:14;;;;;;;1.85;0.80;;;;;;;7.10;55.84;95699.91;5046396;28;20064;-65
2021/11/30 11:00:41;;;;;;;2.83;0.88;;;;;;;5.49;56.31;95445.38;5046169;28;20060;-66
2021/11/30 11:03:22;;;;;;;18.15;5.45;;;;;;;7.61;55.31;95732.94;5046224;28;20397;-64
2021/11/30 11:08:44;;;;;;;5.53;2.15;;;;;;;7.52;55.76;95694.69;5044819;28;20068;-65
2021/11/30 11:11:16;;;;;;;3.95;1.65;;;;;;;7.59;56.40;95798.66;5035997;28;20055;-67
2021/11/30 11:13:43;;;;;;;2.22;0.95;;;;;;;5.96;56.10;95560.88;5035391;28;20059;-65
2021/11/30 11:16:29;;;;;;;5.15;1.25;;;;;;;6.70;57.23;95776.94;5036044;28;20512;-65
2021/11/30 11:18:58;;;;;;;3.33;1.23;;;;;;;7.17;60.35;95768.00;5040048;28;20141;-67
2021/11/30 11:21:27;;;;;;;9.25;5.55;;;;;;;7.09;65.15;95774.59;5032508;28;20435;-66
2021/11/30 11:24:03;;;;;;;4.60;2.90;;;;;;;7.22;68.37;95790.47;5039897;28;20049;-67
2021/11/30 11:26:32;;;;;;;8.30;4.05;;;;;;;6.95;71.41;95793.75;5034419;28;20433;-65
2021/11/30 11:29:04;;;;;;;10.05;4.05;;;;;;;6.99;70.83;95797.31;5041115;28;20130;-67
2021/11/30 11:31:35;;;;;;;21.00;6.93;;;;;;;6.81;70.14;95797.09;5040619;28;20049;-70
2021/11/30 11:34:12;;;;;;;17.45;6.53;;;;;;;6.58;70.19;95727.69;5025864;28;20061;-64
2021/11/30 11:36:48;;;;;;;5.68;2.38;;;;;;;7.06;69.38;95798.19;5036688;28;20158;-61
2021/11/30 11:39:18;;;;;;;15.60;6.32;;;;;;;6.54;68.86;95754.38;5040913;28;20077;-65
2021/11/30 11:41:49;;;;;;;11.85;5.10;;;;;;;6.79;69.48;95760.94;5036756;28;20096;-64
2021/11/30 11:44:16;;;;;;;14.55;5.60;;;;;;;7.05;68.64;95801.31;5034550;28;20095;-64
2021/11/30 11:46:45;;;;;;;13.77;4.40;;;;;;;7.02;66.90;95827.63;5036496;28;20053;-62
2021/11/30 11:49:12;;;;;;;11.05;5.43;;;;;;;7.00;67.79;95843.72;5032949;28;20041;-63
2021/11/30 11:51:45;;;;;;;3.42;1.77;;;;;;;6.94;64.49;95823.22;5041989;28;20181;-63
2021/11/30 11:54:30;;;;;;;5.47;2.87;;;;;;;6.45;63.68;95734.63;5034578;28;20459;-64
2021/11/30 11:57:09;;;;;;;6.45;2.63;;;;;;;7.02;65.07;95830.38;5032893;28;20944;-63
2021/11/30 11:59:43;;;;;;;11.38;4.07;;;;;;;7.00;62.17;95846.47;5030421;28;20496;-68